ADDS METAR Data INFO
IDs: Format: Raw Decoded Include TAF

Data at: 0114 UTC 24 Jun 2018

KLPR 240053Z AUTO 29006KT 10SM SCT070 BKN100 21/17 A2977 RMK AO2 SLP076 T02110172 $
KLPR 232353Z AUTO 24006KT 10SM OVC075 22/18 A2976 RMK AO2 RAE28 SLP073 P0001 60058 T02170178 10250 20194 53007 $
KLPR 232253Z AUTO 28010KT 7SM -RA SCT029 BKN050 OVC085 21/17 A2975 RMK AO2 RAB05 SLP071 P0007 T02060172 $
KLPR 232218Z AUTO 28010KT 3SM RA SCT018 BKN034 OVC065 22/17 A2975 RMK AO2 RAB05 P0002 T02170172 $
KLPR 232209Z AUTO 32015KT 7SM -RA BKN017 BKN031 OVC060 22/18 A2974 RMK AO2 RAB05 CIG 012V027 P0000 T02220178 $
KLPR 232153Z AUTO 24007KT 10SM SCT031 BKN043 OVC090 23/18 A2974 RMK AO2 RAE10 SLP066 P0001 T02280178 $
KLPR 232100Z AUTO VRB06KT 3SM -RA FEW023 BKN055 OVC075 22/18 A2973 RMK AO2 P0001 T02170178 $
KLPR 232053Z AUTO 28008KT 1 1/2SM RA FEW022 BKN045 OVC075 22/17 A2974 RMK AO2 RAB28 SLP066 P0016 60049 T02170172 53008 $
KLPR 232042Z AUTO 27012G18KT 1 1/2SM +RA FEW019 BKN040 OVC075 22/18 A2974 RMK AO2 RAB28 P0008 T02170178 $
KLPR 232031Z AUTO 30011G16KT 6SM -RA SCT021 BKN045 OVC080 23/17 A2973 RMK AO2 RAB28 P0001 T02280172 $
KLPR 232015Z AUTO 28012KT 10SM BKN021 23/18 A2972 RMK AO2 T02330178 $
KLPR 231953Z AUTO 28011G18KT 10SM FEW017 SCT023 BKN070 23/18 A2972 RMK AO2 RAB01E25 SLP060 P0008 T02330178 $
KLPR 231918Z AUTO 25007KT 3SM -RA FEW022 SCT032 BKN050 22/18 A2972 RMK AO2 RAB01 P0008 T02170178 $
KLPR 231910Z AUTO 28010G22KT 1 3/4SM +RA FEW018 SCT026 BKN050 21/17 A2973 RMK AO2 RAB01 P0007 T02060167 $
KLPR 231907Z AUTO 27014G22KT 2 1/2SM +RA FEW017 BKN027 21/17 A2973 RMK AO2 RAB01 P0005 T02110172 $
KLPR 231853Z AUTO 25006KT 10SM FEW034 SCT110 23/18 A2972 RMK AO2 PK WND 31028/1816 RAB17E50 SLP059 P0025 T02280183 $
KLPR 231841Z AUTO VRB05KT 9SM -RA SCT024 BKN065 OVC110 21/17 A2972 RMK AO2 PK WND 31028/1816 RAB17 P0025 T02110172 $
KLPR 231833Z AUTO 27007KT 250V320 2SM RA SCT031 BKN045 OVC090 20/16 A2973 RMK AO2 PK WND 31028/1816 RAB17 P0024 T02000161 $
KLPR 231823Z AUTO 28015G28KT 3/4SM +RA SCT025 BKN038 OVC055 20/16 A2973 RMK AO2 PK WND 31028/1816 RAB17 P0019 T02000161 $
KLPR 231820Z AUTO 29015G28KT 1 1/4SM +RA FEW018 BKN038 OVC048 21/16 A2973 RMK AO2 PK WND 31028/1816 RAB17 P0012 T02110161 $
KLPR 231753Z AUTO 27009G17KT 10SM FEW027 SCT046 BKN120 24/16 A2971 RMK AO2 SLP057 60000 T02440161 10250 20200 58001 $
KLPR 231653Z AUTO 27017G24KT 10SM FEW025 FEW033 SCT065 24/16 A2972 RMK AO2 SLP059 T02390156 $
KLPR 231553Z AUTO 26015G22KT 10SM FEW023 BKN034 OVC070 23/16 A2972 RMK AO2 SLP061 T02280161 $
KLPR 231453Z AUTO 23008G17KT 10SM FEW019 BKN050 OVC075 23/17 A2972 RMK AO2 RAB26E39 SLP058 P0000 60000 T02280167 56001 $
KLPR 231450Z AUTO 25008G17KT 10SM FEW019 BKN034 OVC075 22/17 A2972 RMK AO2 RAB26E39 P0000 $
KLPR 231415Z AUTO 21008KT 10SM SCT017 BKN025 OVC070 21/17 A2971 RMK AO2 T02110167 $
KLPR 231353Z AUTO 20007KT 10SM FEW013 BKN032 OVC060 21/17 A2972 RMK AO2 RAE1259 SLP060 P0000 T02060167 $
KLPR 231326Z AUTO 19008KT 10SM OVC016 21/17 A2972 RMK AO2 RAE1259 P0000 T02060167 $
KLPR 231253Z AUTO 20008KT 10SM -RA BKN014 OVC030 21/17 A2972 RMK AO2 RAB34 SLP060 P0000 T02060167 $
KLPR 231250Z AUTO 19008KT 10SM -RA BKN014 BKN022 OVC030 21/17 A2972 RMK AO2 RAB34 P0000 $
KLPR 231235Z AUTO 20007KT 10SM -RA SCT012 BKN019 OVC070 21/17 A2972 RMK AO2 RAB34 P0000 T02060167 $
KLPR 231153Z AUTO 18008KT 10SM FEW026 SCT039 OVC050 19/17 A2972 RMK AO2 RAB43E53 SLP059 P0000 60000 70029 T01940167 10194 20189 53007 $
KLPR 231053Z AUTO 17007KT 8SM FEW015 BKN048 OVC110 19/16 A2971 RMK AO2 SLP057 T01940161
KLPR 230953Z AUTO 17008KT 10SM OVC100 19/16 A2970 RMK AO2 SLP053 T01890161
KLPR 230926Z AUTO 16008KT 10SM SCT019 BKN100 19/16 A2969 RMK AO2 T01890156
KLPR 230853Z AUTO 17007KT 10SM BKN023 OVC028 19/16 A2970 RMK AO2 RAE0754 SLP051 P0000 60000 T01890156 58005
KLPR 230817Z AUTO 16008KT 10SM SCT012 BKN019 OVC110 19/16 A2970 RMK AO2 RAE0754 P0000 T01890156
KLPR 230753Z AUTO VRB06KT 10SM -RA SCT011 BKN060 OVC110 19/16 A2971 RMK AO2 RAB0655E17B44 SLP054 P0000 T01890156
KLPR 230751Z AUTO 14004KT 10SM -RA SCT011 BKN060 OVC110 19/16 A2971 RMK AO2 RAB0655E17B44 P0000
KLPR 230653Z AUTO VRB05KT 10SM OVC010 19/16 A2971 RMK AO2 RAE06 SLP057 P0000 T01890156
KLPR 230553Z AUTO VRB06KT 10SM -RA OVC014 19/16 A2972 RMK AO2 RAB53 SLPNO P0000 60000 T01890156 10189 20183 57000
KLPR 230548Z AUTO 16009KT 10SM OVC014 19/16 A2972 RMK AO2
KLPR 230502Z AUTO 09006KT 10SM BKN015 19/16 A2973 RMK AO2 T01890156
KLPR 230453Z AUTO 10005KT 10SM SCT014 19/16 A2973 RMK AO2 SLPNO T01890156 402280178
KLPR 230451Z AUTO 10005KT 10SM SCT014 19/16 A2973 RMK AO2
KLPR 230421Z AUTO 10005KT 10SM BKN014 19/16 A2973 RMK AO2 T01890156
KLPR 230353Z AUTO 16008KT 10SM CLR 19/16 A2972 RMK AO2 SLP062 T01890156
KLPR 230253Z AUTO VRB06KT 10SM CLR 19/16 A2973 RMK AO2 RAB05E21 SLP064 P0000 60000 T01890156 53006
KLPR 230153Z AUTO VRB05KT 10SM BKN110 18/15 A2973 RMK AO2 SLP061 T01830150
KLPR 230053Z AUTO 18010KT 10SM FEW120 18/15 A2971 RMK AO2 SLP058 T01830150
KLPR 222353Z AUTO 17009KT 10SM CLR 18/15 A2972 RMK AO2 RAE13 SLP059 P0000 60029 T01830150 10228 20183 58008
KLPR 222253Z AUTO 13006KT 10SM -RA FEW065 SCT095 BKN120 19/16 A2973 RMK AO2 SLP063 P0008 T01890156
KLPR 222201Z AUTO VRB05KT 6SM RA OVC110 19/16 A2974 RMK AO2 LTG DSNT E-S P0001 T01940156
KLPR 222153Z AUTO 09006KT 5SM VCTS RA OVC110 19/16 A2974 RMK AO2 LTG DSNT E-S SLP068 P0020 T01890161
KLPR 222117Z AUTO 14009G21KT 4SM VCTS RA SCT017 BKN080 OVC100 19/16 A2973 RMK AO2 LTG DSNT SE AND S P0009 T01940156
KLPR 222112Z AUTO 15013G21KT 4SM RA BKN017 BKN033 OVC095 20/16 A2974 RMK AO2 LTG DSNT SE AND S P0006 T02000156
KLPR 222105Z AUTO 12011G20KT 090V150 3SM VCTS +RA BKN014 BKN019 OVC029 21/17 A2974 RMK AO2 LTG DSNT SE P0005 T02110172
KLPR 222053Z AUTO 10007KT 6SM VCTS -RA BKN016 OVC032 22/17 A2974 RMK AO2 LTG DSNT SE AND S RAB26 SLP066 P0001 60001 T02170172 56003
KLPR 221953Z AUTO 08007KT 10SM OVC016 22/17 A2975 RMK AO2 LTG DSNT S AND SW SLP068 T02220167
KLPR 221931Z AUTO 10007KT 10SM OVC015 23/17 A2975 RMK AO2 T02280167
KLPR 221853Z AUTO 08007KT 10SM OVC012 22/16 A2975 RMK AO2 SLP070 T02170161
KLPR 221753Z AUTO A2977 RMK AO2 SLPNO 60000 58006 PWINO
KLPR 221653Z AUTO A2979 RMK AO2 SLPNO PWINO
KLPR 221553Z AUTO 20/14 A2980 RMK AO2 SLP085 T02000144 PWINO $
KLPR 221551Z AUTO 20/14 A2979 RMK AO2 PWINO $
KLPR 221453Z AUTO 13011G16KT 10SM OVC020 21/14 A2980 RMK AO2 SLP087 60000 T02060144 58001
KLPR 221353Z AUTO 10010G22KT 10SM BKN023 OVC075 22/14 A2980 RMK AO2 SLP088 T02170144